Terminal Aerodrome Forecast
Issued by NWS

Home | Current Version | Previous Version | Graphics & Text | Print | Product List | Glossary On
Versions: 1 2 3 4 5 6 7 8 9 10 11 12 13 14 15
000
FTUS45 KGGW 151722
TAFGDV
TAF
KGDV 151722Z 1518/1618 29017G24KT P6SM SKC
     FM160000 VRB05KT P6SM SKC
     FM160900 22009KT P6SM SKC
     FM161600 26013KT P6SM FEW200=

USA.gov is the U.S. government's official web portal to all federal, state and local government web resources and services.